Hlavní strana
METAR-TAF:

METAR-TAF

Letiště :

Oberpfaffenhofen, Německo

zeměpisná šířka: 48-05N, zeměpisná délka: 011-17E, výška: 600 m

Aktuální stav počasí

Zpráva byla vytvořena před 10 minutami, v 10:50 UTC
vítr z různých směrů 3 kt
Teplota 26°C
Vlhkost vzduchu 42%
Tlak 1021 hPa
Viditelnost 10 km a více
Žádná oblačnost pod 1500 m, nevyskytují se cumulonimby.

METAR: EDMO 201050Z VRB03KT CAVOK 26/12 Q1021

Čas: 13:00 (11:00 UTC)

Předpověď počasí

Zpráva byla vytvořena před 3 hodinami a 0 minutami, v 08:00 UTC
Předpověď platná od 20 v 09 UTC do 20 v 18 UTC
Severozápadní vítr 6 kt
Viditelnost 10 km a více
Žádná oblačnost pod 1500 m, nevyskytují se cumulonimby.
Změna
od 20 v 16 UTC do 20 v 18 UTC
vítr z různých směrů 3 kt

TAF: EDMO 200800Z 2009/2018 31006KT CAVOK BECMG 2016/2018 VRB03KT

Stav a předpovědi počasí z více než 4 000 letišť (zprávy METAR a TAF).

Červené a žluté tečky na mapě představují dostupné meteorologické stanice.

Když kurzor umístíte na tečku, zobrazí se název stanice.

Pak kliknutím zobrazíte stav a předpověď počasí.

Chcete-li změnit mapu, kliknutím na zelené tlačítko se znaménkem +mapu přiblížíte, kliknutím na zelené tlačítko se znaménkem – mapu oddálíte a kliknutím na zelené šipky přejdete na sousední mapy.


METAR-TAF: